createdAt,value
2023-05-19T00:02:26.033Z,37.97
2023-05-19T00:04:53.550Z,37.88
2023-05-19T00:07:25.278Z,38.10
2023-05-19T00:09:52.648Z,38.01
2023-05-19T00:12:19.967Z,37.99
2023-05-19T00:14:47.332Z,38.05
2023-05-19T00:17:16.894Z,38.17
2023-05-19T00:19:45.155Z,38.09
2023-05-19T00:22:12.497Z,38.24
2023-05-19T00:24:39.739Z,37.81
2023-05-19T00:27:07.080Z,38.18
2023-05-19T00:29:34.392Z,37.65
2023-05-19T00:32:01.672Z,38.00
2023-05-19T00:34:28.924Z,38.21
2023-05-19T00:36:56.159Z,38.16
2023-05-19T00:39:23.370Z,38.09
2023-05-19T00:41:50.606Z,38.18
2023-05-19T00:44:17.819Z,38.21
2023-05-19T00:46:45.137Z,38.21
2023-05-19T00:49:12.382Z,37.99
2023-05-19T00:51:39.607Z,37.92
2023-05-19T00:54:06.864Z,37.93
2023-05-19T00:56:34.169Z,38.12
2023-05-19T00:59:01.625Z,37.92
2023-05-19T01:01:28.977Z,38.07
2023-05-19T01:03:59.105Z,38.02
2023-05-19T01:06:27.761Z,38.10
2023-05-19T01:08:55.887Z,38.11
2023-05-19T01:11:25.921Z,38.12
2023-05-19T01:13:53.206Z,38.15
2023-05-19T01:16:32.123Z,38.15
2023-05-19T01:19:01.717Z,38.11
2023-05-19T01:21:48.878Z,38.14
2023-05-19T01:24:54.810Z,37.98
2023-05-19T01:27:36.405Z,38.10
2023-05-19T01:30:25.400Z,37.93
2023-05-19T01:32:55.137Z,37.94
2023-05-19T01:35:24.865Z,38.12
2023-05-19T01:37:55.272Z,37.97
2023-05-19T01:40:23.300Z,38.12
2023-05-19T01:42:52.899Z,38.15
2023-05-19T01:45:20.602Z,37.99
2023-05-19T01:47:52.451Z,38.10
2023-05-19T01:50:19.837Z,38.13
2023-05-19T01:52:47.054Z,37.83
2023-05-19T01:55:14.338Z,37.93
2023-05-19T01:57:52.033Z,37.96
2023-05-19T02:00:25.070Z,38.08
2023-05-19T02:03:08.951Z,38.06
2023-05-19T02:05:44.382Z,38.07
2023-05-19T02:08:45.832Z,38.14
2023-05-19T02:11:30.806Z,38.11
2023-05-19T02:14:01.429Z,37.99
2023-05-19T02:16:29.686Z,37.89
2023-05-19T02:18:57.402Z,38.08
2023-05-19T02:21:24.823Z,37.95
2023-05-19T02:23:52.091Z,37.94
2023-05-19T02:26:19.314Z,38.01
2023-05-19T02:28:46.653Z,38.05
2023-05-19T02:31:13.867Z,38.03
2023-05-19T02:33:41.306Z,37.95
2023-05-19T02:36:08.978Z,37.98
2023-05-19T02:38:36.802Z,37.79
2023-05-19T02:41:04.019Z,37.90
2023-05-19T02:43:31.257Z,38.00
2023-05-19T02:45:58.565Z,38.08
2023-05-19T02:48:25.901Z,38.08
2023-05-19T02:50:53.096Z,37.86
2023-05-19T02:53:20.306Z,38.04
2023-05-19T02:55:47.519Z,37.84
2023-05-19T02:58:14.818Z,37.58
2023-05-19T03:00:42.035Z,37.93
2023-05-19T03:03:10.296Z,37.98
2023-05-19T03:05:37.953Z,38.00
2023-05-19T03:08:05.278Z,37.89
2023-05-19T03:10:32.783Z,37.85
2023-05-19T03:13:00.058Z,37.79
2023-05-19T03:15:27.320Z,38.07
2023-05-19T03:17:54.678Z,37.80
2023-05-19T03:20:22.084Z,37.89
2023-05-19T03:22:49.415Z,37.94
2023-05-19T03:25:17.095Z,37.81
2023-05-19T03:27:44.336Z,37.82
2023-05-19T03:30:12.151Z,37.89
2023-05-19T03:32:40.078Z,37.86
2023-05-19T03:35:07.778Z,37.91
2023-05-19T03:37:35.012Z,37.90
2023-05-19T03:40:02.913Z,37.89
2023-05-19T03:42:30.129Z,37.93
2023-05-19T03:44:57.340Z,37.95
2023-05-19T03:47:24.682Z,37.84
2023-05-19T03:49:51.936Z,37.88
2023-05-19T03:52:19.162Z,37.83
2023-05-19T03:54:46.463Z,37.76
2023-05-19T03:57:14.126Z,37.79
2023-05-19T03:59:41.468Z,37.86
2023-05-19T04:02:08.822Z,37.74
2023-05-19T04:04:37.968Z,37.78
2023-05-19T04:07:05.301Z,37.88
2023-05-19T04:09:35.106Z,37.74
2023-05-19T04:12:02.898Z,37.69
2023-05-19T04:14:30.121Z,37.96
2023-05-19T04:16:57.888Z,37.76
2023-05-19T04:19:25.389Z,37.78
2023-05-19T04:21:52.666Z,37.88
2023-05-19T04:24:19.930Z,37.76
2023-05-19T04:26:47.336Z,37.88
2023-05-19T04:29:17.949Z,37.77
2023-05-19T04:31:45.905Z,37.74
2023-05-19T04:34:13.249Z,37.88
2023-05-19T04:36:40.485Z,37.62
2023-05-19T04:39:10.070Z,37.55
2023-05-19T04:41:40.229Z,37.72
2023-05-19T04:44:09.079Z,37.82
2023-05-19T04:46:36.597Z,37.80
2023-05-19T04:49:03.877Z,37.65
2023-05-19T04:51:31.337Z,37.73
2023-05-19T04:53:59.296Z,37.92
2023-05-19T04:56:27.511Z,37.86
2023-05-19T04:58:55.014Z,37.91
2023-05-19T05:01:26.010Z,37.92
2023-05-19T05:03:55.326Z,37.77
2023-05-19T05:06:22.766Z,37.87
2023-05-19T05:08:50.955Z,37.98
2023-05-19T05:11:18.709Z,37.87
2023-05-19T05:13:46.609Z,37.77
2023-05-19T05:16:14.602Z,37.65
2023-05-19T05:18:44.690Z,37.90
2023-05-19T05:21:12.683Z,37.65
2023-05-19T05:23:40.048Z,37.59
2023-05-19T05:26:14.868Z,37.65
2023-05-19T05:28:42.257Z,37.70
2023-05-19T05:31:09.556Z,37.60
2023-05-19T05:33:37.499Z,37.78
2023-05-19T05:36:05.065Z,37.64
2023-05-19T05:38:32.538Z,37.64
2023-05-19T05:41:00.869Z,37.62
2023-05-19T05:43:28.500Z,37.82
2023-05-19T05:45:56.538Z,37.83
2023-05-19T05:48:24.021Z,37.58
2023-05-19T05:50:51.518Z,37.79
2023-05-19T05:53:20.377Z,37.71
2023-05-19T05:55:51.255Z,37.70
2023-05-19T05:58:18.567Z,38.08
2023-05-19T06:00:48.487Z,38.08
2023-05-19T06:03:16.925Z,38.16
2023-05-19T06:05:44.356Z,38.02
2023-05-19T06:08:11.670Z,37.86
2023-05-19T06:10:41.657Z,38.04
2023-05-19T06:13:08.913Z,37.94
2023-05-19T06:15:37.627Z,38.12
2023-05-19T06:18:05.031Z,37.88
2023-05-19T06:20:32.580Z,37.83
2023-05-19T06:23:01.093Z,37.78
2023-05-19T06:25:28.348Z,37.83
2023-05-19T06:27:55.557Z,37.73
2023-05-19T06:30:22.858Z,37.79
2023-05-19T06:32:50.662Z,37.81
2023-05-19T06:35:17.940Z,37.77
2023-05-19T06:37:45.207Z,37.93
2023-05-19T06:40:12.885Z,37.64
2023-05-19T06:42:40.094Z,37.54
2023-05-19T06:45:07.878Z,37.54
2023-05-19T06:47:35.133Z,37.61
2023-05-19T06:50:02.492Z,37.33
2023-05-19T06:52:30.142Z,37.62
2023-05-19T06:54:58.178Z,37.41
2023-05-19T06:57:25.459Z,37.55
2023-05-19T06:59:52.713Z,37.28
2023-05-19T07:02:19.921Z,37.36
2023-05-19T07:04:47.470Z,37.29
2023-05-19T07:07:14.704Z,37.58
2023-05-19T07:09:42.238Z,37.54
2023-05-19T07:12:09.698Z,37.53
2023-05-19T07:14:38.798Z,37.84
2023-05-19T07:17:06.139Z,38.00
2023-05-19T07:19:33.387Z,37.95
2023-05-19T07:22:03.782Z,38.11
2023-05-19T07:24:31.604Z,38.30
2023-05-19T07:26:58.869Z,38.27
2023-05-19T07:29:26.237Z,38.13
2023-05-19T07:31:57.814Z,38.17
2023-05-19T07:34:25.623Z,38.33
2023-05-19T07:36:59.234Z,38.18
2023-05-19T07:39:30.107Z,38.46
2023-05-19T07:41:57.389Z,38.44
2023-05-19T07:44:24.588Z,38.42
2023-05-19T07:46:51.861Z,38.26
2023-05-19T07:49:19.133Z,38.38
2023-05-19T07:51:46.446Z,38.12
2023-05-19T07:54:13.715Z,38.42
2023-05-19T07:56:41.376Z,38.13
2023-05-19T07:59:08.639Z,38.15
2023-05-19T08:01:35.988Z,38.08
2023-05-19T08:04:03.544Z,38.29
2023-05-19T08:06:31.730Z,38.78
2023-05-19T08:08:59.111Z,38.80
2023-05-19T08:11:26.772Z,38.91
2023-05-19T08:13:54.294Z,38.74
2023-05-19T08:16:21.933Z,38.81
2023-05-19T08:18:49.340Z,38.92
2023-05-19T08:21:16.608Z,38.89
2023-05-19T08:23:43.902Z,38.88
2023-05-19T08:26:11.126Z,39.10
2023-05-19T08:28:38.383Z,39.17
2023-05-19T08:31:05.730Z,39.44
2023-05-19T08:33:33.052Z,39.12
2023-05-19T08:36:00.283Z,39.20
2023-05-19T08:38:27.546Z,39.17
2023-05-19T08:40:54.889Z,39.19
2023-05-19T08:43:22.498Z,38.99
2023-05-19T08:45:50.059Z,39.44
2023-05-19T08:48:18.150Z,39.13
2023-05-19T08:51:00.874Z,39.03
2023-05-19T08:53:50.438Z,39.19
2023-05-19T08:56:22.740Z,39.11
2023-05-19T08:58:50.938Z,39.13
2023-05-19T09:01:19.427Z,39.13
2023-05-19T09:03:49.545Z,39.28
2023-05-19T09:06:17.107Z,38.90
2023-05-19T09:08:45.055Z,38.84
2023-05-19T09:11:12.837Z,39.57
2023-05-19T09:13:40.120Z,39.61
2023-05-19T09:16:08.037Z,39.68
2023-05-19T09:18:38.134Z,39.62
2023-05-19T09:21:05.475Z,39.56
2023-05-19T09:23:34.082Z,39.51
2023-05-19T09:26:09.120Z,39.90
2023-05-19T09:28:37.708Z,39.56
2023-05-19T09:31:07.027Z,39.79
2023-05-19T09:33:39.004Z,40.30
2023-05-19T09:36:08.487Z,40.22
2023-05-19T09:38:36.938Z,40.31
2023-05-19T09:41:05.383Z,40.17
2023-05-19T09:43:33.708Z,40.24
2023-05-19T09:46:08.038Z,40.07
2023-05-19T09:48:36.585Z,40.32
2023-05-19T09:51:06.335Z,39.98
2023-05-19T09:53:34.918Z,40.42
2023-05-19T09:56:03.572Z,40.55
2023-05-19T09:58:37.179Z,40.66
2023-05-19T10:01:05.114Z,40.64
2023-05-19T10:03:33.496Z,40.54
2023-05-19T10:06:04.981Z,40.79
2023-05-19T10:08:34.290Z,40.85
2023-05-19T10:11:01.710Z,40.58
2023-05-19T10:13:30.681Z,40.87
2023-05-19T10:15:59.773Z,40.73
2023-05-19T10:18:29.664Z,41.14
2023-05-19T10:20:58.025Z,40.59
2023-05-19T10:23:26.361Z,40.95
2023-05-19T10:25:57.506Z,39.81
2023-05-19T10:28:31.263Z,39.56
2023-05-19T10:31:01.697Z,39.64
2023-05-19T10:33:46.592Z,39.37
2023-05-19T10:36:33.200Z,38.92
2023-05-19T10:39:21.477Z,38.71
2023-05-19T10:42:14.342Z,38.47
2023-05-19T10:44:52.375Z,37.88
2023-05-19T10:47:29.191Z,37.79
2023-05-19T10:49:56.636Z,37.70
2023-05-19T10:52:30.138Z,37.43
2023-05-19T10:54:58.404Z,37.26
2023-05-19T10:57:31.784Z,37.37
2023-05-19T11:00:06.468Z,37.44
2023-05-19T11:02:46.051Z,37.40
2023-05-19T11:05:16.695Z,37.19
2023-05-19T11:08:07.763Z,37.28
2023-05-19T11:10:35.454Z,36.84
2023-05-19T11:13:06.364Z,37.14
2023-05-19T11:15:37.358Z,36.96
2023-05-19T11:18:06.303Z,37.17
2023-05-19T11:20:34.964Z,37.00
2023-05-19T11:23:10.231Z,37.30
2023-05-19T11:25:51.696Z,36.81
2023-05-19T11:28:20.972Z,36.54
2023-05-19T11:30:52.023Z,36.44
2023-05-19T11:33:20.604Z,36.73
2023-05-19T11:35:49.850Z,36.49
2023-05-19T11:38:21.140Z,36.55
2023-05-19T11:40:49.905Z,36.71
2023-05-19T11:43:17.213Z,36.58
2023-05-19T11:45:44.948Z,36.64
2023-05-19T11:48:13.080Z,36.44
2023-05-19T11:50:44.045Z,37.42
2023-05-19T11:53:14.786Z,37.55
2023-05-19T11:55:49.197Z,37.63
2023-05-19T11:58:17.558Z,37.78
2023-05-19T12:00:48.397Z,38.04
2023-05-19T12:03:15.996Z,37.96
2023-05-19T12:05:49.342Z,38.10
2023-05-19T12:08:21.649Z,37.97
2023-05-19T12:10:50.858Z,38.17
2023-05-19T12:13:18.213Z,38.36
2023-05-19T12:15:45.653Z,38.26
2023-05-19T12:18:13.677Z,38.36
2023-05-19T12:20:41.040Z,38.40
2023-05-19T12:23:08.621Z,38.43
2023-05-19T12:25:36.356Z,38.39
2023-05-19T12:28:04.602Z,38.40
2023-05-19T12:30:33.371Z,38.19
2023-05-19T12:33:02.627Z,38.53
2023-05-19T12:35:30.800Z,38.51
2023-05-19T12:38:04.370Z,38.54
2023-05-19T12:40:34.236Z,38.51
2023-05-19T12:43:04.805Z,38.64
2023-05-19T12:45:37.297Z,38.76
2023-05-19T12:48:06.990Z,38.81
2023-05-19T12:50:35.020Z,38.78
2023-05-19T12:53:02.733Z,39.15
2023-05-19T12:55:30.560Z,38.78
2023-05-19T12:57:58.761Z,39.07
2023-05-19T13:00:32.421Z,39.21
2023-05-19T13:03:18.759Z,39.10
2023-05-19T13:05:50.340Z,39.20
2023-05-19T13:08:20.179Z,39.43
2023-05-19T13:10:49.235Z,39.33
2023-05-19T13:13:16.684Z,39.44
2023-05-19T13:15:45.949Z,39.46
2023-05-19T13:18:14.248Z,39.54
2023-05-19T13:20:43.092Z,39.46
2023-05-19T13:23:11.503Z,39.09
2023-05-19T13:25:39.273Z,39.41
2023-05-19T13:28:06.825Z,39.56
2023-05-19T13:30:35.756Z,39.48
2023-05-19T13:33:03.743Z,39.59
2023-05-19T13:35:37.353Z,40.09
2023-05-19T13:38:11.985Z,39.22
2023-05-19T13:40:40.108Z,38.92
2023-05-19T13:43:08.716Z,39.06
2023-05-19T13:45:36.539Z,39.27
2023-05-19T13:48:04.112Z,39.10
2023-05-19T13:50:34.481Z,38.89
2023-05-19T13:53:02.022Z,39.33
2023-05-19T13:55:29.499Z,39.37
2023-05-19T13:57:56.889Z,39.39
2023-05-19T14:00:24.545Z,39.40
2023-05-19T14:02:52.735Z,39.24
2023-05-19T14:05:20.303Z,39.68
2023-05-19T14:07:47.551Z,39.74
2023-05-19T14:10:14.803Z,39.37
2023-05-19T14:13:04.933Z,40.17
2023-05-19T14:15:29.417Z,40.17
2023-05-19T14:17:56.819Z,40.63
2023-05-19T14:20:24.064Z,40.42
2023-05-19T14:22:51.600Z,40.43
2023-05-19T14:25:18.943Z,40.25
2023-05-19T14:27:46.270Z,40.13
2023-05-19T14:30:13.863Z,40.17
2023-05-19T14:32:41.357Z,40.00
2023-05-19T14:35:08.881Z,39.97
2023-05-19T14:37:36.137Z,39.98
2023-05-19T14:40:04.562Z,40.02
2023-05-19T14:42:31.870Z,40.12
2023-05-19T14:44:59.173Z,40.10
2023-05-19T14:47:27.475Z,40.09
2023-05-19T14:49:54.807Z,40.02
2023-05-19T14:52:22.699Z,40.36
2023-05-19T14:54:50.032Z,40.17
2023-05-19T14:57:17.272Z,40.30
2023-05-19T14:59:44.470Z,40.29
2023-05-19T15:02:12.666Z,40.46
2023-05-19T15:04:39.914Z,40.31
2023-05-19T15:07:10.413Z,40.29
2023-05-19T15:09:38.346Z,40.33
2023-05-19T15:12:06.043Z,40.23
2023-05-19T15:14:33.593Z,40.17
2023-05-19T15:17:01.421Z,40.04
2023-05-19T15:19:28.831Z,40.19
2023-05-19T15:21:56.338Z,40.00
2023-05-19T15:24:24.229Z,40.13
2023-05-19T15:26:52.108Z,39.94
2023-05-19T15:29:19.644Z,39.89
2023-05-19T15:31:49.813Z,39.93
2023-05-19T15:34:17.248Z,39.95
2023-05-19T15:36:44.541Z,39.98
2023-05-19T15:39:11.939Z,39.94
2023-05-19T15:41:39.309Z,39.75
2023-05-19T15:44:07.054Z,39.96
2023-05-19T15:46:34.372Z,39.84
2023-05-19T15:49:01.636Z,40.03
2023-05-19T15:51:28.956Z,40.02
2023-05-19T15:53:56.296Z,39.82
2023-05-19T15:56:23.557Z,39.75
2023-05-19T15:58:51.111Z,39.94
2023-05-19T16:01:18.682Z,39.97
2023-05-19T16:03:46.675Z,39.79
2023-05-19T16:06:14.293Z,39.93
2023-05-19T16:08:41.636Z,39.75
2023-05-19T16:11:09.236Z,39.71
2023-05-19T16:13:36.490Z,39.96
2023-05-19T16:16:03.868Z,39.97
2023-05-19T16:18:31.454Z,40.03
2023-05-19T16:20:58.711Z,39.75
2023-05-19T16:23:27.396Z,39.75
2023-05-19T16:25:54.907Z,39.89
2023-05-19T16:28:24.621Z,40.07
2023-05-19T16:30:52.243Z,39.73
2023-05-19T16:33:19.735Z,39.34
2023-05-19T16:35:47.031Z,38.94
2023-05-19T16:38:14.318Z,38.69
2023-05-19T16:40:41.592Z,38.64
2023-05-19T16:43:08.909Z,38.41
2023-05-19T16:45:36.469Z,38.56
2023-05-19T16:48:03.921Z,38.43
2023-05-19T16:50:31.339Z,38.62
2023-05-19T16:52:58.653Z,38.51
2023-05-19T16:55:26.748Z,38.44
2023-05-19T16:57:54.064Z,38.57
2023-05-19T17:00:21.457Z,38.61
2023-05-19T17:02:49.009Z,38.42
2023-05-19T17:05:16.414Z,38.43
2023-05-19T17:07:44.020Z,38.64
2023-05-19T17:10:11.742Z,38.60
2023-05-19T17:12:39.041Z,38.99
2023-05-19T17:15:06.884Z,38.97
2023-05-19T17:17:34.514Z,38.90
2023-05-19T17:20:02.092Z,39.09
2023-05-19T17:22:30.405Z,39.02
2023-05-19T17:24:57.906Z,39.30
2023-05-19T17:27:25.203Z,39.33
2023-05-19T17:29:52.601Z,39.02
2023-05-19T17:32:25.706Z,39.05
2023-05-19T17:34:53.294Z,39.12
2023-05-19T17:37:23.466Z,39.02
2023-05-19T17:39:51.020Z,39.27
2023-05-19T17:42:18.245Z,39.26
2023-05-19T17:44:45.462Z,39.23
2023-05-19T17:47:12.727Z,38.95
2023-05-19T17:49:40.330Z,39.51
2023-05-19T17:52:08.077Z,39.44
2023-05-19T17:54:35.516Z,39.30
2023-05-19T17:57:04.133Z,39.51
2023-05-19T17:59:32.356Z,39.56
2023-05-19T18:02:00.052Z,39.66
2023-05-19T18:04:27.495Z,39.60
2023-05-19T18:06:56.568Z,39.38
2023-05-19T18:09:24.605Z,39.39
2023-05-19T18:11:54.919Z,39.32
2023-05-19T18:14:22.128Z,39.53
2023-05-19T18:16:50.050Z,39.30
2023-05-19T18:19:17.506Z,39.68
2023-05-19T18:21:44.786Z,39.66
2023-05-19T18:24:11.990Z,39.62
2023-05-19T18:26:41.921Z,39.50
2023-05-19T18:29:13.905Z,39.40
2023-05-19T18:31:41.654Z,39.41
2023-05-19T18:34:09.720Z,39.32
2023-05-19T18:36:37.478Z,39.81
2023-05-19T18:39:05.007Z,39.74
2023-05-19T18:41:32.281Z,39.59
2023-05-19T18:43:59.838Z,39.78
2023-05-19T18:46:27.391Z,39.85
2023-05-19T18:48:54.685Z,39.91
2023-05-19T18:51:22.378Z,39.71
2023-05-19T18:53:50.640Z,39.86
2023-05-19T18:56:28.017Z,39.72
2023-05-19T18:58:55.589Z,39.62
2023-05-19T19:01:23.016Z,40.01
2023-05-19T19:03:50.526Z,40.26
2023-05-19T19:06:18.020Z,39.74
2023-05-19T19:08:45.342Z,39.73
2023-05-19T19:11:12.724Z,39.81
2023-05-19T19:13:39.989Z,39.98
2023-05-19T19:16:07.872Z,39.97
2023-05-19T19:18:37.877Z,40.60
2023-05-19T19:21:08.312Z,40.90
2023-05-19T19:23:35.578Z,41.12
2023-05-19T19:26:02.882Z,41.36
2023-05-19T19:28:30.196Z,41.33
2023-05-19T19:30:57.449Z,40.86
2023-05-19T19:33:24.787Z,41.01
2023-05-19T19:35:52.028Z,41.03
2023-05-19T19:38:19.242Z,41.27
2023-05-19T19:40:46.566Z,41.05
2023-05-19T19:43:13.775Z,41.16
2023-05-19T19:45:41.664Z,41.08
2023-05-19T19:48:08.979Z,41.32
2023-05-19T19:50:36.509Z,41.06
2023-05-19T19:53:03.755Z,41.10
2023-05-19T19:55:31.045Z,41.38
2023-05-19T19:57:58.337Z,40.87
2023-05-19T20:00:25.631Z,40.76
2023-05-19T20:03:04.627Z,41.00
2023-05-19T20:05:32.989Z,40.40
2023-05-19T20:08:00.243Z,40.65
2023-05-19T20:10:27.474Z,40.53
2023-05-19T20:12:55.151Z,40.51
2023-05-19T20:15:22.409Z,40.74
2023-05-19T20:17:49.852Z,40.65
2023-05-19T20:20:17.151Z,40.51
2023-05-19T20:22:45.859Z,40.48
2023-05-19T20:25:13.120Z,40.49
2023-05-19T20:27:40.673Z,40.28
2023-05-19T20:30:08.546Z,40.73
2023-05-19T20:32:36.326Z,40.51
2023-05-19T20:35:03.623Z,40.66
2023-05-19T20:37:30.989Z,40.82
2023-05-19T20:39:58.606Z,40.74
2023-05-19T20:42:26.107Z,40.61
2023-05-19T20:44:53.716Z,40.62
2023-05-19T20:47:21.506Z,41.04
2023-05-19T20:49:48.715Z,40.96
2023-05-19T20:52:16.345Z,40.99
2023-05-19T20:54:43.895Z,40.73
2023-05-19T20:57:11.940Z,41.02
2023-05-19T20:59:40.207Z,41.02
2023-05-19T21:02:07.696Z,40.80
2023-05-19T21:04:35.115Z,41.00
2023-05-19T21:07:02.498Z,40.97
2023-05-19T21:09:29.917Z,40.90
2023-05-19T21:11:57.488Z,40.80
2023-05-19T21:14:25.629Z,40.75
2023-05-19T21:16:57.164Z,40.67
2023-05-19T21:19:24.704Z,40.92
2023-05-19T21:21:52.103Z,41.01
2023-05-19T21:24:19.548Z,40.78
2023-05-19T21:26:52.707Z,41.00
2023-05-19T21:29:23.008Z,40.90
2023-05-19T21:31:52.150Z,40.92
2023-05-19T21:34:19.431Z,40.82
2023-05-19T21:36:50.046Z,40.79
2023-05-19T21:39:17.611Z,40.69
2023-05-19T21:41:51.365Z,40.69
2023-05-19T21:44:23.746Z,40.85
2023-05-19T21:46:51.602Z,40.73
2023-05-19T21:49:19.987Z,40.73
2023-05-19T21:51:47.289Z,40.70
2023-05-19T21:54:14.574Z,40.76
2023-05-19T21:56:41.793Z,40.76
2023-05-19T21:59:09.695Z,40.85
2023-05-19T22:01:38.672Z,40.87
2023-05-19T22:04:06.136Z,40.86
2023-05-19T22:06:33.771Z,40.74
2023-05-19T22:09:02.807Z,40.73
2023-05-19T22:11:30.093Z,40.88
2023-05-19T22:14:00.414Z,40.93
2023-05-19T22:16:27.748Z,40.82
2023-05-19T22:18:55.732Z,41.32
2023-05-19T22:21:23.331Z,41.03
2023-05-19T22:23:51.625Z,41.02
2023-05-19T22:26:19.047Z,40.98
2023-05-19T22:28:46.375Z,40.90
2023-05-19T22:31:13.572Z,40.72
2023-05-19T22:33:47.530Z,40.88
2023-05-19T22:36:16.270Z,40.75
2023-05-19T22:38:47.843Z,40.67
2023-05-19T22:41:15.381Z,40.98
2023-05-19T22:43:42.826Z,41.03
2023-05-19T22:46:10.485Z,40.82
2023-05-19T22:48:37.747Z,41.03
2023-05-19T22:51:05.544Z,40.99
2023-05-19T22:53:32.978Z,41.18
2023-05-19T22:56:00.529Z,41.01
2023-05-19T22:58:28.184Z,40.95
2023-05-19T23:00:56.182Z,41.04
2023-05-19T23:03:23.551Z,41.15
2023-05-19T23:05:51.053Z,41.27
2023-05-19T23:08:18.300Z,41.10
2023-05-19T23:10:45.561Z,41.05
2023-05-19T23:13:12.813Z,41.05
2023-05-19T23:15:40.070Z,41.14
2023-05-19T23:18:08.587Z,41.09
2023-05-19T23:20:36.354Z,41.06
2023-05-19T23:23:03.605Z,41.00
2023-05-19T23:25:31.996Z,41.20
2023-05-19T23:27:59.575Z,41.25
2023-05-19T23:30:28.554Z,41.12
2023-05-19T23:32:56.095Z,40.93
2023-05-19T23:35:25.557Z,41.14
2023-05-19T23:37:53.725Z,41.13
2023-05-19T23:40:21.162Z,40.90
2023-05-19T23:42:48.376Z,41.15
2023-05-19T23:45:15.650Z,41.14
2023-05-19T23:47:42.885Z,41.02
2023-05-19T23:50:10.634Z,40.84
2023-05-19T23:52:38.115Z,41.17
2023-05-19T23:55:05.943Z,41.01
2023-05-19T23:57:33.197Z,40.95
